createdAt,value
2022-11-06T00:00:59.667Z,46.1
2022-11-06T00:03:51.200Z,49.3
2022-11-06T00:06:39.158Z,41.9
2022-11-06T00:09:33.883Z,46.4
2022-11-06T00:12:21.275Z,50.7
2022-11-06T00:15:08.524Z,46.8
2022-11-06T00:17:56.849Z,53.2
2022-11-06T00:20:44.203Z,49.5
2022-11-06T00:23:31.786Z,43.9
2022-11-06T00:26:20.832Z,43.6
2022-11-06T00:29:10.112Z,48.8
2022-11-06T00:31:59.532Z,42.9
2022-11-06T00:34:46.891Z,44.3
2022-11-06T00:37:34.193Z,41.8
2022-11-06T00:40:21.723Z,49.2
2022-11-06T00:43:09.076Z,53.8
2022-11-06T00:45:56.435Z,47.6
2022-11-06T00:48:47.606Z,49.5
2022-11-06T00:51:35.207Z,45.5
2022-11-06T00:54:24.091Z,55.7
2022-11-06T00:57:11.377Z,44.6
2022-11-06T00:59:58.663Z,54.5
2022-11-06T01:02:46.187Z,56.1
2022-11-06T01:05:33.586Z,50
2022-11-06T01:08:21.002Z,45.6
2022-11-06T01:11:08.218Z,50.7
2022-11-06T01:13:59.393Z,38.4
2022-11-06T01:16:48.898Z,46.4
2022-11-06T01:19:36.964Z,41.1
2022-11-06T01:22:24.708Z,39.7
2022-11-06T01:25:12.115Z,38.6
2022-11-06T01:27:59.972Z,36.6
2022-11-06T01:30:47.292Z,43.6
2022-11-06T01:33:34.634Z,41
2022-11-06T01:36:22.115Z,41.9
2022-11-06T01:39:10.608Z,39.1
2022-11-06T01:42:00.188Z,36.5
2022-11-06T01:44:47.637Z,32.9
2022-11-06T01:48:12.522Z,34.3
2022-11-06T01:51:01.516Z,39.7
2022-11-06T01:53:49.594Z,34.9
2022-11-06T01:56:37.353Z,35
2022-11-06T01:59:26.481Z,32
2022-11-06T02:02:17.089Z,32.9
2022-11-06T02:05:04.897Z,34.5
2022-11-06T02:07:53.105Z,32.6
2022-11-06T02:10:41.349Z,26.7
2022-11-06T02:13:30.226Z,33.2
2022-11-06T02:16:29.625Z,29.2
2022-11-06T02:19:32.049Z,31.5
2022-11-06T02:22:38.672Z,33.4
2022-11-06T02:25:45.512Z,27.7
2022-11-06T02:28:39.175Z,29.4
2022-11-06T02:31:35.400Z,31.7
2022-11-06T02:34:27.205Z,30.8
2022-11-06T02:37:15.238Z,40.1
2022-11-06T02:40:09.988Z,26.1
2022-11-06T02:43:00.084Z,26.3
2022-11-06T02:45:51.240Z,31.9
2022-11-06T02:48:42.877Z,28.6
2022-11-06T02:51:36.490Z,29.7
2022-11-06T02:54:31.569Z,29.3
2022-11-06T02:57:23.410Z,32
2022-11-06T03:00:13.324Z,23.5
2022-11-06T03:03:02.246Z,25.2
2022-11-06T03:05:56.648Z,27
2022-11-06T03:08:49.458Z,23.6
2022-11-06T03:11:41.013Z,24.2
2022-11-06T03:14:28.429Z,23
2022-11-06T03:17:19.938Z,23.8
2022-11-06T03:20:14.509Z,21.8
2022-11-06T03:23:08.108Z,20.6
2022-11-06T03:26:00.977Z,20.2
2022-11-06T03:28:58.009Z,22
2022-11-06T03:31:53.660Z,23.1
2022-11-06T03:34:46.461Z,20.5
2022-11-06T03:37:40.300Z,22.2
2022-11-06T03:40:33.564Z,21.8
2022-11-06T03:43:27.891Z,17.5
2022-11-06T03:46:20.781Z,16.2
2022-11-06T03:49:09.825Z,19.1
2022-11-06T03:52:02.973Z,27.5
2022-11-06T03:54:55.901Z,16
2022-11-06T03:57:49.319Z,21.5
2022-11-06T04:00:40.282Z,17.5
2022-11-06T04:03:28.619Z,22
2022-11-06T04:06:20.706Z,17.4
2022-11-06T04:09:13.063Z,14.9
2022-11-06T04:12:35.870Z,18.5
2022-11-06T04:16:41.918Z,18.4
2022-11-06T04:19:34.709Z,17.7
2022-11-06T04:22:22.401Z,19
2022-11-06T04:25:22.034Z,17.9
2022-11-06T04:28:49.316Z,12.7
2022-11-06T04:31:47.907Z,13.8
2022-11-06T04:34:43.857Z,12.6
2022-11-06T04:37:38.905Z,13.8
2022-11-06T04:40:35.340Z,15.1
2022-11-06T04:43:36.041Z,23.8
2022-11-06T04:46:29.046Z,15.5
2022-11-06T04:49:22.269Z,14.8
2022-11-06T04:52:11.682Z,23.1
2022-11-06T04:55:03.759Z,14.4
2022-11-06T04:57:51.927Z,14.6
2022-11-06T05:00:39.210Z,17.1
2022-11-06T05:03:32.622Z,15.7
2022-11-06T05:06:23.525Z,14.5
2022-11-06T05:09:14.586Z,19.1
2022-11-06T05:12:01.951Z,15.3
2022-11-06T05:14:49.875Z,13.2
2022-11-06T05:17:37.108Z,13.2
2022-11-06T05:20:24.370Z,12.2
2022-11-06T05:23:11.790Z,15.4
2022-11-06T05:26:00.129Z,14.7
2022-11-06T05:28:47.547Z,15.4
2022-11-06T05:31:35.093Z,21.6
2022-11-06T05:34:22.411Z,14.8
2022-11-06T05:37:09.857Z,17.8
2022-11-06T05:39:57.142Z,16.4
2022-11-06T05:42:44.426Z,16.9
2022-11-06T05:45:31.890Z,22.7
2022-11-06T05:48:20.222Z,15
2022-11-06T05:51:07.635Z,16.6
2022-11-06T05:53:54.938Z,14.2
2022-11-06T05:56:42.154Z,14.7
2022-11-06T05:59:29.376Z,13.9
2022-11-06T06:02:17.307Z,15.3
2022-11-06T06:05:04.666Z,22.2
2022-11-06T06:07:53.909Z,18.5
2022-11-06T06:10:41.342Z,22
2022-11-06T06:13:30.536Z,28.6
2022-11-06T06:16:18.749Z,16.4
2022-11-06T06:19:06.088Z,20.2
2022-11-06T06:21:53.313Z,23.8
2022-11-06T06:24:40.703Z,27.1
2022-11-06T06:27:28.671Z,20.9
2022-11-06T06:30:16.367Z,19.6
2022-11-06T06:33:04.553Z,25.5
2022-11-06T06:35:52.570Z,27.4
2022-11-06T06:38:39.940Z,22.8
2022-11-06T06:41:27.261Z,27.4
2022-11-06T06:44:14.501Z,30.6
2022-11-06T06:47:02.000Z,24.7
2022-11-06T06:49:49.362Z,24.2
2022-11-06T06:52:36.788Z,23.1
2022-11-06T06:55:24.080Z,23.9
2022-11-06T06:58:17.542Z,21.7
2022-11-06T07:01:05.715Z,21.1
2022-11-06T07:03:58.696Z,21.8
2022-11-06T07:06:50.401Z,24.5
2022-11-06T07:09:39.153Z,22.9
2022-11-06T07:12:26.390Z,25.6
2022-11-06T07:15:13.768Z,24.4
2022-11-06T07:18:01.192Z,28.2
2022-11-06T07:20:49.589Z,29.8
2022-11-06T07:23:37.042Z,28.8
2022-11-06T07:26:24.403Z,29.1
2022-11-06T07:29:11.617Z,25.7
2022-11-06T07:31:59.192Z,28.4
2022-11-06T07:34:47.035Z,27.9
2022-11-06T07:37:34.324Z,21.9
2022-11-06T07:40:21.898Z,25.9
2022-11-06T07:43:09.263Z,22.4
2022-11-06T07:45:56.882Z,24.3
2022-11-06T07:48:45.548Z,27.9
2022-11-06T07:51:33.353Z,26.2
2022-11-06T07:54:21.743Z,22
2022-11-06T07:57:09.325Z,23.6
2022-11-06T07:59:56.671Z,22.6
2022-11-06T08:02:43.946Z,19.8
2022-11-06T08:05:35.208Z,26
2022-11-06T08:08:22.661Z,24.2
2022-11-06T08:11:10.043Z,23
2022-11-06T08:13:57.828Z,20.8
2022-11-06T08:16:45.734Z,29.8
2022-11-06T08:19:33.401Z,27.8
2022-11-06T08:22:21.779Z,18.9
2022-11-06T08:25:09.138Z,17.6
2022-11-06T08:27:56.755Z,21
2022-11-06T08:30:45.642Z,21
2022-11-06T08:33:33.226Z,19.6
2022-11-06T08:36:22.884Z,20.6
2022-11-06T08:39:10.281Z,17.8
2022-11-06T08:41:58.020Z,26.7
2022-11-06T08:44:46.424Z,15.8
2022-11-06T08:47:33.780Z,20
2022-11-06T08:50:21.240Z,91.9
2022-11-06T08:53:08.662Z,94.5
2022-11-06T08:55:56.181Z,112.6
2022-11-06T08:58:43.529Z,52.4
2022-11-06T09:01:31.090Z,27.6
2022-11-06T09:04:19.420Z,21
2022-11-06T09:07:06.694Z,23.8
2022-11-06T09:09:54.419Z,28.5
2022-11-06T09:12:41.797Z,20.5
2022-11-06T09:15:29.135Z,19
2022-11-06T09:18:16.675Z,16.5
2022-11-06T09:21:04.024Z,19.1
2022-11-06T09:23:51.505Z,16.7
2022-11-06T09:26:39.076Z,17.9
2022-11-06T09:29:26.415Z,21.6
2022-11-06T09:32:13.739Z,16.6
2022-11-06T09:35:01.170Z,17
2022-11-06T09:37:49.995Z,12.6
2022-11-06T09:40:37.370Z,13.8
2022-11-06T09:43:58.293Z,13.2
2022-11-06T09:47:06.352Z,14.3
2022-11-06T09:50:04.494Z,12.7
2022-11-06T09:53:04.765Z,18
2022-11-06T09:56:04.702Z,14.3
2022-11-06T09:58:55.944Z,16.9
2022-11-06T10:01:44.913Z,14.1
2022-11-06T10:04:36.201Z,13
2022-11-06T10:07:30.383Z,12.2
2022-11-06T10:10:21.484Z,14.7
2022-11-06T10:13:17.808Z,13
2022-11-06T10:16:24.421Z,15.4
2022-11-06T10:19:23.502Z,11.7
2022-11-06T10:22:23.140Z,12
2022-11-06T10:25:19.452Z,13.5
2022-11-06T10:28:09.831Z,11.9
2022-11-06T10:31:10.571Z,11.4
2022-11-06T10:34:09.934Z,11.4
2022-11-06T10:37:00.951Z,11.2
2022-11-06T10:39:56.099Z,12.3
2022-11-06T10:42:45.116Z,11.5
2022-11-06T10:45:43.110Z,11.9
2022-11-06T10:48:41.405Z,76.6
2022-11-06T10:51:34.205Z,66.7
2022-11-06T10:54:39.146Z,63.5
2022-11-06T10:57:41.978Z,132.3
2022-11-06T11:00:32.694Z,38
2022-11-06T11:03:21.607Z,23.7
2022-11-06T11:06:14.516Z,18.4
2022-11-06T11:09:02.188Z,15.5
2022-11-06T11:12:12.758Z,13.8
2022-11-06T11:15:08.368Z,11.5
2022-11-06T11:17:59.955Z,8.8
2022-11-06T11:21:01.913Z,11.4
2022-11-06T11:23:59.013Z,12.5
2022-11-06T11:26:55.861Z,13.1
2022-11-06T11:29:46.887Z,13.8
2022-11-06T11:32:35.190Z,11.9
2022-11-06T11:35:22.556Z,11.6
2022-11-06T11:38:14.464Z,13.4
2022-11-06T11:41:04.198Z,14
2022-11-06T11:43:54.225Z,11.7
2022-11-06T11:46:49.096Z,10.8
2022-11-06T11:49:38.426Z,12.1
2022-11-06T11:52:25.686Z,11.8
2022-11-06T11:55:12.932Z,15.4
2022-11-06T11:58:01.450Z,12.6
2022-11-06T12:00:49.398Z,9
2022-11-06T12:03:40.669Z,12.7
2022-11-06T12:06:34.492Z,11.4
2022-11-06T12:09:21.823Z,11.3
2022-11-06T12:12:11.402Z,14.7
2022-11-06T12:15:07.857Z,9.8
2022-11-06T12:18:05.738Z,16.4
2022-11-06T12:20:57.912Z,12.3
2022-11-06T12:23:50.320Z,12.6
2022-11-06T12:26:42.523Z,11.4
2022-11-06T12:29:34.896Z,9.2
2022-11-06T12:32:27.157Z,19
2022-11-06T12:35:30.165Z,14
2022-11-06T12:38:22.599Z,10
2022-11-06T12:41:16.811Z,13.4
2022-11-06T12:44:10.418Z,8.3
2022-11-06T12:47:00.705Z,11.7
2022-11-06T12:49:55.915Z,11
2022-11-06T12:53:06.468Z,12.9
2022-11-06T12:56:05.801Z,8.9
2022-11-06T12:59:02.580Z,9
2022-11-06T13:02:03.947Z,8
2022-11-06T13:05:08.957Z,8.4
2022-11-06T13:08:01.562Z,128.5
2022-11-06T13:11:02.532Z,166.6
2022-11-06T13:14:02.846Z,106.5
2022-11-06T13:17:01.858Z,52.4
2022-11-06T13:19:58.135Z,21.7
2022-11-06T13:22:54.238Z,24
2022-11-06T13:25:49.360Z,35.3
2022-11-06T13:28:45.983Z,33.2
2022-11-06T13:31:40.657Z,15.5
2022-11-06T13:34:32.721Z,21.2
2022-11-06T13:37:23.124Z,23.2
2022-11-06T13:40:22.418Z,20.4
2022-11-06T13:43:16.591Z,13.3
2022-11-06T13:46:06.808Z,17.3
2022-11-06T13:49:03.506Z,12.6
2022-11-06T13:51:59.497Z,16.6
2022-11-06T13:54:50.470Z,12
2022-11-06T13:57:50.815Z,11.2
2022-11-06T14:01:12.088Z,10.8
2022-11-06T14:04:10.578Z,11.6
2022-11-06T14:07:37.584Z,15.6
2022-11-06T14:10:27.279Z,11
2022-11-06T14:13:19.581Z,10.2
2022-11-06T14:16:14.193Z,10
2022-11-06T14:19:19.597Z,10.1
2022-11-06T14:22:11.433Z,11.6
2022-11-06T14:25:09.310Z,13.2
2022-11-06T14:28:30.929Z,19.8
2022-11-06T14:31:27.547Z,22.5
2022-11-06T14:34:51.174Z,12.7
2022-11-06T14:37:38.541Z,15.6
2022-11-06T14:40:34.453Z,20.5
2022-11-06T14:43:23.669Z,17.8
2022-11-06T14:46:13.801Z,13.1
2022-11-06T14:49:04.669Z,9.8
2022-11-06T14:52:00.735Z,12.2
2022-11-06T14:54:52.463Z,13.6
2022-11-06T14:57:44.850Z,12.4
2022-11-06T15:00:36.951Z,15.1
2022-11-06T15:03:29.958Z,17.4
2022-11-06T15:06:23.006Z,17.7
2022-11-06T15:09:30.628Z,14.6
2022-11-06T15:12:33.754Z,10.2
2022-11-06T15:15:55.736Z,12.3
2022-11-06T15:18:48.764Z,15.9
2022-11-06T15:21:36.817Z,15.4
2022-11-06T15:24:30.229Z,16.4
2022-11-06T15:27:22.503Z,15.6
2022-11-06T15:30:13.023Z,27.7
2022-11-06T15:33:03.191Z,21.7
2022-11-06T15:35:58.473Z,21
2022-11-06T15:38:50.962Z,18.9
2022-11-06T15:41:38.446Z,21.4
2022-11-06T15:44:26.824Z,17.1
2022-11-06T15:47:14.617Z,20.2
2022-11-06T15:50:07.265Z,25.1
2022-11-06T15:53:00.811Z,21.9
2022-11-06T15:56:05.698Z,21.9
2022-11-06T15:58:54.323Z,19.6
2022-11-06T16:01:59.499Z,20.6
2022-11-06T16:04:50.416Z,21.2
2022-11-06T16:07:37.947Z,23.2
2022-11-06T16:10:25.471Z,23.4
2022-11-06T16:13:13.621Z,24.4
2022-11-06T16:16:03.799Z,23.9
2022-11-06T16:18:51.523Z,31.1
2022-11-06T16:21:38.904Z,27.9
2022-11-06T16:24:26.417Z,33.4
2022-11-06T16:27:18.144Z,23.1
2022-11-06T16:30:08.035Z,23.5
2022-11-06T16:33:05.952Z,25.8
2022-11-06T16:36:07.697Z,31.1
2022-11-06T16:38:57.389Z,31.3
2022-11-06T16:42:28.788Z,25.9
2022-11-06T16:45:20.328Z,34.5
2022-11-06T16:48:08.323Z,38.9
2022-11-06T16:51:30.042Z,29.9
2022-11-06T16:54:19.166Z,35.5
2022-11-06T16:57:13.275Z,30.3
2022-11-06T17:00:04.751Z,39.1
2022-11-06T17:03:07.665Z,35.8
2022-11-06T17:06:06.320Z,34.3
2022-11-06T17:09:09.442Z,33.8
2022-11-06T17:12:13.527Z,43
2022-11-06T17:15:00.843Z,35.5
2022-11-06T17:17:48.429Z,34.1
2022-11-06T17:20:35.717Z,36.5
2022-11-06T17:23:24.012Z,32.8
2022-11-06T17:26:13.202Z,32.7
2022-11-06T17:29:05.881Z,39.2
2022-11-06T17:31:55.071Z,47.5
2022-11-06T17:34:42.539Z,43.3
2022-11-06T17:37:29.924Z,50.6
2022-11-06T17:40:17.480Z,49.8
2022-11-06T17:43:04.816Z,42.6
2022-11-06T17:45:52.880Z,36.3
2022-11-06T17:48:40.641Z,36.5
2022-11-06T17:51:28.163Z,34.2
2022-11-06T17:54:47.637Z,29
2022-11-06T17:57:35.241Z,25.8
2022-11-06T18:00:22.526Z,24.8
2022-11-06T18:03:09.964Z,25.2
2022-11-06T18:06:02.442Z,25
2022-11-06T18:08:49.983Z,26.9
2022-11-06T18:11:41.391Z,27.5
2022-11-06T18:14:29.158Z,25.6
2022-11-06T18:17:16.465Z,26.8
2022-11-06T18:20:04.256Z,30.4
2022-11-06T18:22:53.328Z,27.2
2022-11-06T18:25:40.711Z,21.8
2022-11-06T18:28:28.543Z,27.6
2022-11-06T18:31:16.249Z,27.1
2022-11-06T18:34:05.119Z,29.1
2022-11-06T18:36:55.344Z,30.1
2022-11-06T18:39:42.673Z,31.3
2022-11-06T18:42:30.079Z,33.6
2022-11-06T18:45:17.519Z,29.9
2022-11-06T18:48:05.478Z,39.5
2022-11-06T18:50:52.918Z,35.9
2022-11-06T18:53:40.262Z,29.7
2022-11-06T18:56:28.472Z,30.9
2022-11-06T18:59:15.788Z,32.5
2022-11-06T19:02:04.387Z,30.4
2022-11-06T19:04:53.541Z,34.9
2022-11-06T19:07:41.031Z,33.1
2022-11-06T19:10:28.432Z,30.6
2022-11-06T19:13:17.072Z,32.9
2022-11-06T19:16:04.415Z,30.6
2022-11-06T19:21:49.792Z,32.1
2022-11-06T19:24:37.145Z,34.1
2022-11-06T19:27:24.582Z,35.8
2022-11-06T19:30:11.867Z,31.6
2022-11-06T19:33:00.146Z,33.9
2022-11-06T19:35:47.799Z,35.2
2022-11-06T19:38:35.305Z,37
2022-11-06T19:41:22.587Z,34.3
2022-11-06T19:44:10.463Z,31.9
2022-11-06T19:46:57.925Z,39.6
2022-11-06T19:49:45.694Z,48.5
2022-11-06T19:52:42.552Z,37
2022-11-06T19:55:32.585Z,40.4
2022-11-06T19:58:23.899Z,43.5
2022-11-06T20:01:12.112Z,35.2
2022-11-06T20:04:00.222Z,35.7
2022-11-06T20:06:47.614Z,40.4
2022-11-06T20:09:35.206Z,35.2
2022-11-06T20:12:22.712Z,36.3
2022-11-06T20:15:09.898Z,35.9
2022-11-06T20:17:57.283Z,36.2
2022-11-06T20:20:44.801Z,40.7
2022-11-06T20:23:32.443Z,29.2
2022-11-06T20:26:21.078Z,33.1
2022-11-06T20:29:09.202Z,33.1
2022-11-06T20:31:56.483Z,38.2
2022-11-06T20:34:43.744Z,34.4
2022-11-06T20:37:31.099Z,32.7
2022-11-06T20:40:19.669Z,31.9
2022-11-06T20:43:06.995Z,29.9
2022-11-06T20:45:55.641Z,33.4
2022-11-06T20:48:45.486Z,36.3
2022-11-06T20:51:48.346Z,34.7
2022-11-06T20:54:35.885Z,35.6
2022-11-06T20:57:23.195Z,31.2
2022-11-06T21:00:10.506Z,31
2022-11-06T21:03:01.694Z,28.4
2022-11-06T21:05:49.482Z,31
2022-11-06T21:08:36.917Z,29.4
2022-11-06T21:11:25.788Z,41.3
2022-11-06T21:14:13.325Z,50.8
2022-11-06T21:17:00.710Z,56.7
2022-11-06T21:19:48.885Z,61.5
2022-11-06T21:22:36.217Z,46.8
2022-11-06T21:25:23.663Z,45.4
2022-11-06T21:28:11.066Z,47.2
2022-11-06T21:30:58.744Z,42.7
2022-11-06T21:33:46.135Z,39.2
2022-11-06T21:36:35.407Z,37.9
2022-11-06T21:39:23.070Z,30.1
2022-11-06T21:42:10.461Z,33.2
2022-11-06T21:44:57.760Z,28.1
2022-11-06T21:47:45.119Z,27.6
2022-11-06T21:50:32.709Z,32
2022-11-06T21:53:21.474Z,25.8
2022-11-06T21:56:40.978Z,31.2
2022-11-06T21:59:29.152Z,26.6
2022-11-06T22:02:16.640Z,31.7
2022-11-06T22:05:04.006Z,26.8
2022-11-06T22:07:51.886Z,28.2
2022-11-06T22:10:39.287Z,34.9
2022-11-06T22:13:26.588Z,30.7
2022-11-06T22:16:14.666Z,32.4
2022-11-06T22:19:04.543Z,29.6
2022-11-06T22:21:53.045Z,31.5
2022-11-06T22:24:40.431Z,28.3
2022-11-06T22:27:27.692Z,27.4
2022-11-06T22:30:15.097Z,26.5
2022-11-06T22:33:02.671Z,27.6
2022-11-06T22:35:50.250Z,24.2
2022-11-06T22:38:37.610Z,28.2
2022-11-06T22:41:26.621Z,31
2022-11-06T22:44:14.035Z,30.5
2022-11-06T22:47:01.554Z,26.4
2022-11-06T22:49:49.935Z,25.1
2022-11-06T22:52:37.134Z,25.3
2022-11-06T22:55:24.903Z,28.2
2022-11-06T22:58:12.247Z,28.9
2022-11-06T23:00:59.495Z,32.7
2022-11-06T23:03:46.996Z,28.4
2022-11-06T23:06:34.815Z,27.5
2022-11-06T23:09:23.365Z,34.7
2022-11-06T23:12:10.908Z,34.5
2022-11-06T23:15:00.303Z,29.2
2022-11-06T23:17:47.800Z,24.2
2022-11-06T23:20:35.240Z,27.1
2022-11-06T23:23:22.609Z,24.5
2022-11-06T23:26:09.968Z,26.8
2022-11-06T23:28:59.083Z,24.2
2022-11-06T23:31:46.643Z,23.6
2022-11-06T23:34:34.255Z,25.8
2022-11-06T23:37:22.292Z,32.2
2022-11-06T23:40:10.595Z,26.3
2022-11-06T23:42:58.315Z,27.7
2022-11-06T23:45:45.715Z,31.2
2022-11-06T23:48:34.346Z,28.3
2022-11-06T23:51:22.407Z,29.1
2022-11-06T23:54:11.050Z,33.8
2022-11-06T23:56:59.073Z,26
2022-11-06T23:59:46.396Z,26.6
